KSDF Airport Diagram

We have created a template for each of the higher traffic airports in the vZID airspace. They include KCMH, KCRW, KCVG, KDAY, KIND, KLEX and KSDF. You wil find usefull information including the airport diagram, weather, and specific airport procedures.

KSDF Weather

[Source: ADDS]
METAR
KSDF 191356Z 18005KT 3SM BR OVC014 11/09 A3008 RMK AO2 SLP186 T01060094 =
TAF
KSDF 191342Z 1914/2018 VRB04KT 4SM BR SCT008 BKN013 TEMPO 1914/1916 2SM BR BKN008 FM191700 24004KT P6SM BKN018 FM192300 VRB03KT P6SM SCT022 SCT200 FM200900 VRB03KT 4SM BR BKN200 =

SDF Operations

Calm Wind Configuration is runways 17L and 17R

Runway 17L typically departs north and east

Runway 17R typicall departs south and west

 

JSN Epic template designed by JoomlaShine.com